Time;durP1;ratioP1;P1;durP2;ratioP2;P2;SDS_P1;SDS_P2;PMS_P1;PMS_P2;Temp;Humidity;BMP_temperature;BMP_pressure;BME280_temperature;BME280_humidity;BME280_pressure;Samples;Min_cycle;Max_cycle;Signal;HPM_P1;HPM_P2
2022/04/25 00:01:17;;;;;;;10.00;5.70;;;10.30;77.80;;;;;;5039012;28;20052;-68
2022/04/25 00:03:46;;;;;;;8.50;5.50;;;10.30;77.70;;;;;;5050892;28;20388;-67
2022/04/25 00:06:13;;;;;;;13.25;6.80;;;10.30;77.80;;;;;;5048833;28;20103;-69
2022/04/25 00:08:40;;;;;;;10.38;6.00;;;10.30;77.80;;;;;;5044482;28;20040;-68
2022/04/25 00:11:07;;;;;;;10.05;6.10;;;10.20;77.80;;;;;;5047660;28;20037;-69
2022/04/25 00:13:34;;;;;;;9.82;5.88;;;10.20;77.90;;;;;;5048440;28;20040;-69
2022/04/25 00:16:01;;;;;;;12.80;6.20;;;10.20;77.90;;;;;;5046574;28;20114;-67
2022/04/25 00:18:29;;;;;;;10.75;5.55;;;10.30;77.90;;;;;;5047639;28;20603;-67
2022/04/25 00:20:57;;;;;;;11.40;6.57;;;10.20;78.00;;;;;;5045630;28;20061;-67
2022/04/25 00:23:24;;;;;;;9.88;5.68;;;10.20;78.00;;;;;;5042263;28;20052;-67
2022/04/25 00:25:52;;;;;;;11.52;5.40;;;10.20;78.10;;;;;;5045683;28;20176;-67
2022/04/25 00:28:19;;;;;;;12.60;5.68;;;10.20;78.20;;;;;;5047014;28;20598;-67
2022/04/25 00:30:47;;;;;;;8.30;5.22;;;10.20;78.20;;;;;;5047627;28;20080;-67
2022/04/25 00:33:15;;;;;;;8.93;5.03;;;10.20;78.20;;;;;;5047328;28;20127;-68
2022/04/25 00:35:42;;;;;;;9.20;5.45;;;10.20;78.20;;;;;;5047931;28;20045;-68
2022/04/25 00:38:11;;;;;;;9.73;5.45;;;10.20;78.20;;;;;;5048106;28;20112;-68
2022/04/25 00:40:38;;;;;;;8.68;5.47;;;10.20;78.20;;;;;;5047965;28;20040;-67
2022/04/25 00:43:06;;;;;;;8.60;5.28;;;10.20;78.40;;;;;;5038271;28;20059;-68
2022/04/25 00:45:34;;;;;;;11.15;5.55;;;10.10;78.60;;;;;;5035296;28;20049;-67
2022/04/25 00:48:02;;;;;;;9.02;5.15;;;10.10;78.60;;;;;;5035791;28;20107;-67
2022/04/25 00:50:29;;;;;;;11.80;6.55;;;10.10;78.50;;;;;;5036465;28;20507;-67
2022/04/25 00:52:56;;;;;;;9.32;5.47;;;10.10;78.70;;;;;;5038846;28;20041;-67
2022/04/25 00:55:25;;;;;;;13.07;6.07;;;10.10;78.80;;;;;;5040077;28;20041;-66
2022/04/25 00:57:54;;;;;;;11.85;6.70;;;10.10;78.90;;;;;;5031213;28;20059;-68
2022/04/25 01:00:21;;;;;;;9.23;6.05;;;10.00;78.90;;;;;;5033127;28;20033;-67
2022/04/25 01:02:48;;;;;;;9.85;6.35;;;10.10;79.00;;;;;;5040908;28;20080;-67
2022/04/25 01:05:15;;;;;;;12.95;6.22;;;10.00;79.00;;;;;;5039023;28;20716;-67
2022/04/25 01:07:43;;;;;;;10.65;6.55;;;10.00;79.00;;;;;;5039286;28;20500;-68
2022/04/25 01:10:11;;;;;;;10.20;6.47;;;10.00;78.90;;;;;;5040421;28;20044;-67
2022/04/25 01:12:39;;;;;;;10.88;6.22;;;10.00;78.90;;;;;;5039607;28;20076;-67
2022/04/25 01:15:08;;;;;;;12.25;6.80;;;10.00;79.00;;;;;;5037102;28;20036;-68
2022/04/25 01:17:36;;;;;;;13.93;6.50;;;10.00;79.00;;;;;;5039408;28;20041;-68
2022/04/25 01:20:03;;;;;;;10.73;6.60;;;10.00;78.90;;;;;;5038125;28;20037;-67
2022/04/25 01:22:36;;;;;;;11.07;7.28;;;10.00;79.00;;;;;;5037544;28;20072;-68
2022/04/25 01:27:49;;;;;;;11.18;6.75;;;10.00;79.10;;;;;;5039147;28;20095;-66
2022/04/25 01:30:16;;;;;;;10.77;6.50;;;10.00;79.10;;;;;;5038576;28;20045;-67
2022/04/25 01:32:44;;;;;;;12.57;6.72;;;10.00;79.10;;;;;;5036221;28;20630;-66
2022/04/25 01:35:11;;;;;;;11.43;6.30;;;10.00;79.00;;;;;;5022475;28;20112;-66
2022/04/25 01:37:38;;;;;;;10.18;6.18;;;10.00;79.00;;;;;;5025097;28;20659;-67
2022/04/25 01:40:07;;;;;;;10.73;6.53;;;10.00;79.10;;;;;;5030043;28;20048;-67
2022/04/25 01:42:34;;;;;;;10.13;6.43;;;10.10;79.10;;;;;;5023705;28;20059;-67
2022/04/25 01:45:02;;;;;;;10.85;5.57;;;10.00;79.20;;;;;;5023796;28;20041;-68
2022/04/25 01:47:30;;;;;;;9.70;6.43;;;10.00;79.30;;;;;;5025389;28;20116;-68
2022/04/25 01:49:57;;;;;;;10.75;6.22;;;10.00;79.30;;;;;;5032602;28;20077;-70
2022/04/25 01:52:28;;;;;;;10.02;6.45;;;10.00;79.30;;;;;;5035000;28;20055;-69
2022/04/25 01:54:55;;;;;;;12.70;7.00;;;9.90;79.30;;;;;;5035000;28;20432;-67
2022/04/25 01:57:24;;;;;;;12.18;6.60;;;9.90;79.40;;;;;;5034741;28;20044;-67
2022/04/25 01:59:51;;;;;;;12.63;6.95;;;9.80;79.60;;;;;;5034234;28;20136;-68
2022/04/25 02:02:19;;;;;;;13.35;7.32;;;9.90;79.50;;;;;;5014666;28;20068;-68
2022/04/25 02:04:46;;;;;;;13.07;6.25;;;9.90;79.40;;;;;;5033082;28;20133;-68
2022/04/25 02:07:13;;;;;;;13.25;7.00;;;9.90;79.40;;;;;;5035216;28;20075;-68
2022/04/25 02:09:43;;;;;;;10.77;6.38;;;9.90;79.30;;;;;;5035311;28;20140;-68
2022/04/25 02:12:11;;;;;;;12.23;6.25;;;9.90;79.10;;;;;;5034468;28;20068;-68
2022/04/25 02:14:41;;;;;;;11.13;6.78;;;9.90;79.00;;;;;;5031398;28;20037;-68
2022/04/25 02:17:09;;;;;;;11.27;6.18;;;9.90;78.90;;;;;;5035567;28;20125;-68
2022/04/25 02:19:38;;;;;;;10.50;6.70;;;9.80;79.00;;;;;;5034275;28;20439;-68
2022/04/25 02:22:06;;;;;;;9.55;5.95;;;9.70;79.10;;;;;;5034049;28;20050;-69
2022/04/25 02:24:33;;;;;;;8.95;5.82;;;9.70;79.10;;;;;;5035014;28;20087;-69
2022/04/25 02:27:03;;;;;;;10.40;5.97;;;9.70;79.00;;;;;;5037324;28;20049;-67
2022/04/25 02:29:30;;;;;;;16.83;7.33;;;9.70;79.00;;;;;;5026590;28;20037;-68
2022/04/25 02:31:59;;;;;;;10.30;6.53;;;9.70;78.90;;;;;;5030430;28;20124;-69
2022/04/25 02:34:26;;;;;;;11.93;5.78;;;9.60;79.00;;;;;;5036706;28;20041;-69
2022/04/25 02:36:55;;;;;;;12.18;6.30;;;9.60;79.00;;;;;;5037706;28;20392;-69
2022/04/25 02:39:22;;;;;;;11.38;6.57;;;9.60;78.90;;;;;;5036599;28;20080;-69
2022/04/25 02:41:49;;;;;;;12.07;6.25;;;9.50;79.00;;;;;;5031392;28;20511;-68
2022/04/25 02:44:16;;;;;;;12.90;5.80;;;9.40;79.00;;;;;;5027427;28;20049;-69
2022/04/25 02:46:43;;;;;;;10.57;6.72;;;9.50;79.00;;;;;;5026261;28;20042;-68
2022/04/25 02:49:12;;;;;;;11.85;5.95;;;9.40;79.00;;;;;;5027058;28;20703;-69
2022/04/25 02:51:39;;;;;;;10.07;5.53;;;9.40;78.70;;;;;;5024096;28;20065;-69
2022/04/25 02:54:06;;;;;;;11.18;6.50;;;9.40;78.70;;;;;;5025840;28;20045;-68
2022/04/25 02:56:33;;;;;;;11.35;6.55;;;9.40;78.60;;;;;;5026298;28;20045;-68
2022/04/25 02:59:00;;;;;;;10.38;6.18;;;9.30;78.70;;;;;;5027734;28;20073;-69
2022/04/25 03:01:27;;;;;;;10.77;6.22;;;9.30;78.60;;;;;;5025414;28;20052;-68
2022/04/25 03:03:54;;;;;;;10.63;6.00;;;9.30;78.70;;;;;;5026575;28;20041;-68
2022/04/25 03:06:22;;;;;;;8.93;5.57;;;9.30;78.60;;;;;;5028057;28;20042;-68
2022/04/25 03:08:49;;;;;;;9.60;5.55;;;9.20;78.70;;;;;;5028423;28;20533;-68
2022/04/25 03:11:16;;;;;;;10.15;5.90;;;9.20;78.80;;;;;;5025526;28;20041;-68
2022/04/25 03:13:44;;;;;;;11.40;6.32;;;9.20;79.10;;;;;;5028445;28;20092;-68
2022/04/25 03:16:11;;;;;;;11.45;6.25;;;9.20;79.10;;;;;;5023325;28;20045;-67
2022/04/25 03:18:38;;;;;;;14.52;6.93;;;9.20;79.20;;;;;;5026524;28;20434;-69
2022/04/25 03:21:05;;;;;;;9.68;5.93;;;9.20;79.40;;;;;;5029912;28;20056;-69
2022/04/25 03:23:36;;;;;;;14.15;6.55;;;9.20;79.50;;;;;;5021281;28;20050;-69
2022/04/25 03:26:04;;;;;;;10.13;6.43;;;9.20;79.50;;;;;;5021238;28;20451;-68
2022/04/25 03:28:31;;;;;;;9.57;5.85;;;9.20;79.60;;;;;;5018953;28;20048;-69
2022/04/25 03:30:58;;;;;;;9.93;6.50;;;9.20;79.80;;;;;;5019540;28;20046;-69
2022/04/25 03:33:31;;;;;;;11.07;6.38;;;9.10;79.90;;;;;;5017175;28;20072;-67
2022/04/25 03:36:00;;;;;;;10.65;6.75;;;9.20;79.90;;;;;;5017409;28;20104;-69
2022/04/25 03:38:27;;;;;;;11.13;6.60;;;9.20;79.70;;;;;;5018076;28;20053;-68
2022/04/25 03:41:45;;;;;;;10.13;6.47;;;9.20;79.60;;;;;;5016899;28;20045;-68
2022/04/25 03:44:20;;;;;;;12.10;6.80;;;9.20;79.80;;;;;;5046368;28;20061;-68
2022/04/25 03:46:47;;;;;;;10.55;6.05;;;9.20;79.90;;;;;;5045695;28;20477;-68
2022/04/25 03:49:14;;;;;;;10.85;6.35;;;9.20;79.90;;;;;;5045463;28;20053;-70
2022/04/25 03:51:42;;;;;;;9.48;5.85;;;9.20;80.00;;;;;;5050417;28;20045;-68
2022/04/25 03:54:09;;;;;;;11.18;6.50;;;9.20;80.20;;;;;;5052570;28;20426;-67
2022/04/25 03:59:23;;;;;;;11.85;5.88;;;9.10;80.30;;;;;;5049980;28;20048;-69
2022/04/25 04:01:50;;;;;;;11.18;7.00;;;9.10;80.30;;;;;;5046429;28;20538;-69
2022/04/25 04:07:06;;;;;;;11.93;6.40;;;9.20;80.20;;;;;;6022712;23;20014;-67
2022/04/25 04:09:49;;;;;;;11.38;6.28;;;9.10;80.30;;;;;;4915568;29;20107;-64
2022/04/25 04:12:16;;;;;;;11.00;6.72;;;9.10;80.40;;;;;;4910479;29;20749;-64
2022/04/25 04:14:46;;;;;;;10.35;6.55;;;9.20;80.30;;;;;;4926106;29;20126;-63
2022/04/25 04:17:13;;;;;;;11.40;6.03;;;9.10;80.30;;;;;;4926605;29;20130;-67
2022/04/25 04:19:41;;;;;;;9.57;5.80;;;9.20;80.30;;;;;;4926863;29;20074;-65
2022/04/25 04:22:09;;;;;;;11.15;6.10;;;9.20;80.30;;;;;;4926203;29;20055;-64
2022/04/25 04:24:36;;;;;;;12.90;6.70;;;9.20;80.20;;;;;;4925090;29;20112;-63
2022/04/25 04:27:04;;;;;;;11.63;6.72;;;9.20;80.30;;;;;;4926559;29;20122;-64
2022/04/25 04:29:32;;;;;;;12.20;5.80;;;9.10;80.40;;;;;;4927083;29;20054;-63
2022/04/25 04:32:03;;;;;;;12.60;6.68;;;9.10;80.40;;;;;;4924645;29;20488;-63
2022/04/25 04:34:30;;;;;;;9.55;5.70;;;9.10;80.30;;;;;;4925034;29;20492;-64
2022/04/25 04:36:57;;;;;;;11.02;5.88;;;9.10;80.30;;;;;;4927464;29;20054;-65
2022/04/25 04:39:24;;;;;;;9.57;5.47;;;9.00;80.30;;;;;;4926897;29;20048;-65
2022/04/25 04:41:51;;;;;;;9.88;5.80;;;9.10;80.50;;;;;;4917362;29;20052;-64
2022/04/25 04:44:18;;;;;;;10.45;6.13;;;9.10;80.50;;;;;;4912856;29;20441;-63
2022/04/25 04:46:45;;;;;;;11.38;5.55;;;9.10;80.40;;;;;;4928282;29;20107;-63
2022/04/25 04:49:13;;;;;;;10.85;5.93;;;9.10;80.40;;;;;;4928032;29;20055;-64
2022/04/25 04:51:40;;;;;;;10.15;6.22;;;9.20;80.40;;;;;;4927120;29;20044;-63
2022/04/25 04:54:07;;;;;;;10.30;5.93;;;9.20;80.30;;;;;;4924340;29;20050;-64
2022/04/25 04:56:34;;;;;;;10.70;6.55;;;9.20;80.40;;;;;;4924762;29;20119;-64
2022/04/25 04:59:02;;;;;;;11.43;6.05;;;9.20;80.30;;;;;;4926130;29;20048;-64
2022/04/25 05:01:29;;;;;;;11.35;6.50;;;9.30;80.30;;;;;;4921427;29;20050;-64
2022/04/25 05:03:58;;;;;;;10.23;6.00;;;9.30;80.40;;;;;;4924851;29;20413;-64
2022/04/25 05:06:26;;;;;;;10.55;5.43;;;9.30;80.40;;;;;;4925671;29;20047;-63
2022/04/25 05:08:54;;;;;;;14.90;6.47;;;9.30;80.40;;;;;;4918750;29;20617;-63
2022/04/25 05:11:21;;;;;;;9.43;6.10;;;9.30;80.50;;;;;;4920282;29;20075;-64
2022/04/25 05:13:48;;;;;;;11.85;6.07;;;9.30;80.50;;;;;;4922225;29;20056;-64
2022/04/25 05:16:15;;;;;;;11.73;6.43;;;9.30;80.50;;;;;;4914749;29;20801;-63
2022/04/25 05:18:44;;;;;;;10.50;6.50;;;9.30;80.50;;;;;;4914590;29;20047;-64
2022/04/25 05:21:13;;;;;;;11.73;6.70;;;9.30;80.50;;;;;;4915905;29;20079;-64
2022/04/25 05:23:43;;;;;;;11.32;6.65;;;9.30;80.50;;;;;;4916354;29;20042;-64
2022/04/25 05:26:10;;;;;;;9.33;6.07;;;9.30;80.70;;;;;;4910953;29;20040;-65
2022/04/25 05:28:37;;;;;;;10.45;5.93;;;9.40;80.70;;;;;;4911406;29;20044;-66
2022/04/25 05:31:04;;;;;;;11.05;6.50;;;9.40;80.70;;;;;;4912567;29;20271;-65
2022/04/25 05:33:31;;;;;;;10.05;6.25;;;9.40;80.60;;;;;;4920800;29;20079;-65
2022/04/25 05:35:58;;;;;;;10.20;5.85;;;9.40;80.60;;;;;;4918524;29;20062;-64
2022/04/25 05:38:25;;;;;;;12.07;5.82;;;9.40;80.60;;;;;;4919950;29;20043;-67
2022/04/25 05:40:55;;;;;;;11.27;6.72;;;9.40;80.50;;;;;;4921517;29;20522;-64
2022/04/25 05:43:22;;;;;;;9.82;5.70;;;9.40;80.40;;;;;;4919882;29;20040;-64
2022/04/25 05:45:49;;;;;;;9.52;6.03;;;9.50;80.30;;;;;;4919118;29;20166;-64
2022/04/25 05:53:45;;;;;;;13.25;6.45;;;9.50;80.30;;;;;;4921903;29;20096;-62
2022/04/25 05:56:13;;;;;;;11.55;6.50;;;9.60;80.20;;;;;;4920180;29;20050;-64
2022/04/25 05:58:40;;;;;;;9.63;5.78;;;9.50;80.30;;;;;;4923849;29;20095;-63
2022/04/25 06:01:07;;;;;;;11.98;6.10;;;9.60;80.30;;;;;;4902247;29;20143;-64
2022/04/25 06:03:34;;;;;;;11.60;5.65;;;9.60;80.30;;;;;;4923357;29;20054;-65
2022/04/25 06:06:01;;;;;;;9.63;6.53;;;9.60;80.40;;;;;;4920880;29;20047;-64
2022/04/25 06:08:28;;;;;;;13.32;7.32;;;9.60;80.50;;;;;;4920440;29;20063;-64
2022/04/25 06:10:55;;;;;;;13.63;6.43;;;9.60;80.50;;;;;;4923451;29;20048;-64
2022/04/25 06:13:25;;;;;;;11.05;6.20;;;9.60;80.50;;;;;;4915029;29;20139;-63
2022/04/25 06:15:52;;;;;;;10.77;6.45;;;9.60;80.60;;;;;;4921558;29;20561;-66
2022/04/25 06:18:19;;;;;;;16.02;6.78;;;9.70;80.60;;;;;;4920400;29;20136;-66
2022/04/25 06:20:46;;;;;;;12.52;7.25;;;9.70;80.80;;;;;;4923051;29;20046;-66
2022/04/25 06:23:14;;;;;;;12.50;7.40;;;9.70;80.90;;;;;;4919930;29;20044;-65
2022/04/25 06:25:41;;;;;;;12.50;7.82;;;9.70;80.90;;;;;;4901883;29;20048;-64
2022/04/25 06:28:08;;;;;;;12.02;7.07;;;9.70;81.00;;;;;;4922178;29;20051;-64
2022/04/25 06:30:36;;;;;;;13.65;7.57;;;9.70;81.00;;;;;;4921647;29;20059;-64
2022/04/25 06:33:03;;;;;;;13.75;7.65;;;9.80;81.00;;;;;;4920712;29;20055;-64
2022/04/25 06:35:30;;;;;;;11.77;6.32;;;9.70;81.10;;;;;;4917656;29;20044;-64
2022/04/25 06:37:57;;;;;;;14.43;7.57;;;9.80;81.10;;;;;;4916246;29;20040;-64
2022/04/25 06:40:24;;;;;;;12.75;6.90;;;9.80;81.00;;;;;;4911649;29;20050;-64
2022/04/25 06:42:53;;;;;;;12.40;6.70;;;9.80;81.00;;;;;;4914683;29;20119;-64
2022/04/25 06:45:20;;;;;;;11.65;7.22;;;9.90;80.90;;;;;;4913098;29;20084;-64
2022/04/25 06:47:49;;;;;;;11.80;6.57;;;9.80;80.90;;;;;;4909590;29;20118;-64
2022/04/25 06:50:16;;;;;;;16.60;8.27;;;9.90;80.90;;;;;;4911965;29;20044;-64
2022/04/25 06:52:44;;;;;;;13.10;7.28;;;9.90;80.80;;;;;;4909446;29;20103;-65
2022/04/25 06:55:11;;;;;;;15.80;7.68;;;9.90;80.70;;;;;;4915592;29;20055;-64
2022/04/25 06:57:38;;;;;;;16.30;8.63;;;9.90;80.70;;;;;;4910142;29;20048;-64
2022/04/25 07:00:08;;;;;;;15.35;7.38;;;10.00;80.60;;;;;;4908088;29;20058;-64
2022/04/25 07:02:35;;;;;;;13.05;7.18;;;10.00;80.50;;;;;;4912839;29;20051;-65
2022/04/25 07:05:06;;;;;;;13.32;6.88;;;10.10;80.30;;;;;;4909828;29;20056;-64
2022/04/25 07:07:33;;;;;;;;;;;10.10;80.40;;;;;;4909677;29;20064;-65
2022/04/25 07:10:00;;;;;;;13.80;6.78;;;10.10;80.30;;;;;;4909946;29;19934;-64
2022/04/25 07:12:28;;;;;;;13.93;7.32;;;10.20;80.40;;;;;;4913735;29;20124;-64
2022/04/25 07:14:55;;;;;;;12.40;7.40;;;10.20;80.50;;;;;;4910287;29;20043;-64
2022/04/25 07:17:21;;;;;;;11.20;6.25;;;10.30;80.40;;;;;;4910838;29;20048;-64
2022/04/25 07:19:48;;;;;;;13.60;7.38;;;10.40;80.40;;;;;;4920526;29;20107;-65
2022/04/25 07:30:34;;;;;;;14.55;7.43;;;10.60;80.10;;;;;;4916523;29;20040;-65
2022/04/25 07:33:01;;;;;;;10.93;6.90;;;10.70;80.10;;;;;;4909952;29;20166;-64
2022/04/25 07:35:28;;;;;;;13.90;7.40;;;10.80;79.90;;;;;;4911423;29;20058;-66
2022/04/25 07:37:57;;;;;;;14.10;7.38;;;10.90;79.70;;;;;;4912363;29;20455;-64
2022/04/25 07:40:24;;;;;;;14.25;8.07;;;10.90;79.50;;;;;;4916454;29;20063;-66
2022/04/25 07:42:55;;;;;;;14.23;7.30;;;11.00;79.60;;;;;;4913563;29;20466;-65
2022/04/25 07:45:23;;;;;;;13.00;7.65;;;11.10;79.60;;;;;;4911214;29;20036;-63
2022/04/25 07:47:49;;;;;;;14.15;7.63;;;11.10;79.40;;;;;;4913326;29;20123;-66
2022/04/25 07:50:23;;;;;;;15.05;7.68;;;11.10;79.30;;;;;;4909970;29;20127;-64
2022/04/25 07:52:50;;;;;;;12.25;7.25;;;11.20;79.00;;;;;;4910566;29;20135;-63
2022/04/25 07:55:19;;;;;;;12.02;7.25;;;11.20;79.00;;;;;;4913964;29;20075;-64
2022/04/25 07:57:46;;;;;;;13.90;8.27;;;11.20;79.10;;;;;;4897537;29;20772;-64
2022/04/25 08:00:15;;;;;;;15.07;7.95;;;11.20;79.30;;;;;;4912352;29;20119;-69
2022/04/25 08:02:42;;;;;;;13.02;7.68;;;11.30;79.20;;;;;;4910040;29;20048;-69
2022/04/25 08:05:09;;;;;;;11.90;6.95;;;11.40;78.90;;;;;;4911956;29;20600;-69
2022/04/25 08:07:37;;;;;;;13.35;6.97;;;11.60;79.20;;;;;;4912738;29;20161;-69
2022/04/25 08:10:06;;;;;;;15.77;7.57;;;11.70;79.10;;;;;;4913485;29;20052;-71
2022/04/25 08:18:06;;;;;;;13.13;7.40;;;12.20;78.70;;;;;;4912227;29;20131;-69
2022/04/25 08:20:35;;;;;;;11.57;7.38;;;12.40;78.20;;;;;;4915973;29;20095;-69
2022/04/25 08:23:03;;;;;;;12.93;7.72;;;12.50;77.90;;;;;;4912705;29;20051;-71
2022/04/25 08:25:31;;;;;;;12.55;7.32;;;12.60;78.40;;;;;;4915244;29;20477;-70
2022/04/25 08:28:01;;;;;;;12.57;6.57;;;12.60;77.80;;;;;;4912931;29;20056;-70
2022/04/25 08:30:29;;;;;;;10.50;6.40;;;12.80;77.50;;;;;;4915943;29;20162;-71
2022/04/25 08:32:56;;;;;;;16.08;6.45;;;12.90;77.20;;;;;;4907921;29;20051;-70
2022/04/25 08:35:23;;;;;;;14.20;6.22;;;13.00;77.60;;;;;;4893758;29;20865;-70
2022/04/25 08:37:50;;;;;;;9.20;5.35;;;13.10;77.00;;;;;;4911936;29;20052;-70
2022/04/25 08:40:17;;;;;;;9.65;4.88;;;13.10;76.60;;;;;;4908529;29;20052;-70
2022/04/25 08:42:47;;;;;;;11.95;6.32;;;13.10;76.60;;;;;;4916473;29;20050;-69
2022/04/25 08:45:16;;;;;;;8.40;5.15;;;13.10;76.10;;;;;;4910757;29;20044;-70
2022/04/25 08:47:48;;;;;;;9.63;5.40;;;13.10;75.90;;;;;;4912966;29;20055;-69
2022/04/25 08:50:17;;;;;;;10.98;5.93;;;13.20;76.00;;;;;;4908362;29;20485;-70
2022/04/25 08:52:46;;;;;;;11.50;5.68;;;13.20;75.70;;;;;;4910776;29;20044;-70
2022/04/25 08:55:13;;;;;;;9.73;5.60;;;13.10;75.60;;;;;;4915788;29;20048;-70
2022/04/25 08:57:43;;;;;;;11.02;6.18;;;13.20;75.70;;;;;;4908937;29;20624;-71
2022/04/25 09:00:11;;;;;;;12.82;5.90;;;13.30;75.80;;;;;;4905735;29;20127;-70
2022/04/25 09:02:40;;;;;;;9.23;5.45;;;13.40;75.80;;;;;;4911756;29;20039;-72
2022/04/25 09:05:07;;;;;;;10.70;5.55;;;13.40;75.50;;;;;;4912419;29;20217;-70
2022/04/25 09:07:37;;;;;;;9.48;5.28;;;13.50;75.00;;;;;;4907432;29;20103;-71
2022/04/25 09:10:04;;;;;;;;;;;13.70;75.40;;;;;;4913525;29;20071;-70
2022/04/25 09:12:31;;;;;;;9.65;5.57;;;13.90;75.10;;;;;;4914604;29;19973;-70
2022/04/25 09:14:59;;;;;;;8.50;4.88;;;14.10;74.80;;;;;;4910045;29;20067;-70
2022/04/25 09:17:26;;;;;;;10.60;5.35;;;14.20;74.60;;;;;;4914514;29;20051;-70
2022/04/25 09:19:55;;;;;;;8.73;5.13;;;14.40;75.20;;;;;;4913215;29;20174;-72
2022/04/25 09:22:32;;;;;;;8.82;5.85;;;14.40;73.60;;;;;;4909900;29;20048;-70
2022/04/25 09:25:08;;;;;;;9.30;4.97;;;14.40;74.00;;;;;;4913822;29;20040;-69
2022/04/25 09:27:36;;;;;;;8.00;4.60;;;14.40;72.90;;;;;;4913742;29;20059;-70
2022/04/25 09:30:18;;;;;;;9.18;4.78;;;14.40;72.60;;;;;;4915894;29;20068;-70
2022/04/25 09:32:46;;;;;;;9.15;5.30;;;14.40;72.40;;;;;;4909124;29;20071;-68
2022/04/25 09:35:29;;;;;;;9.40;5.32;;;14.30;72.10;;;;;;4912915;29;20055;-70
2022/04/25 09:37:58;;;;;;;9.38;5.00;;;14.30;72.20;;;;;;4907312;29;20058;-70
2022/04/25 09:40:29;;;;;;;7.07;4.13;;;14.20;72.20;;;;;;4914084;29;20048;-69
2022/04/25 09:43:08;;;;;;;8.90;4.88;;;14.20;72.60;;;;;;4910487;29;20117;-68
2022/04/25 09:45:40;;;;;;;10.15;5.63;;;14.20;72.40;;;;;;4912019;29;20044;-70
2022/04/25 09:48:11;;;;;;;9.07;5.28;;;14.10;72.60;;;;;;4911581;29;20048;-72
2022/04/25 09:50:40;;;;;;;8.63;4.72;;;14.10;72.40;;;;;;4913156;29;20035;-70
2022/04/25 09:53:10;;;;;;;9.25;4.68;;;14.10;72.30;;;;;;4911750;29;20619;-71
2022/04/25 09:55:39;;;;;;;7.32;4.38;;;14.00;72.20;;;;;;4913384;29;20048;-71
2022/04/25 09:58:20;;;;;;;9.90;4.37;;;14.00;72.20;;;;;;4909495;29;20271;-70
2022/04/25 10:00:49;;;;;;;8.88;4.65;;;13.90;72.10;;;;;;4911279;29;20044;-70
2022/04/25 10:03:18;;;;;;;6.90;3.72;;;13.90;72.00;;;;;;4906341;29;22303;-70
2022/04/25 10:05:47;;;;;;;8.68;4.38;;;14.00;72.30;;;;;;4911937;29;20053;-70
2022/04/25 10:08:16;;;;;;;7.55;4.03;;;14.10;71.40;;;;;;4910382;29;20178;-69
2022/04/25 10:10:47;;;;;;;10.27;4.18;;;14.10;70.70;;;;;;4910686;29;20075;-70
2022/04/25 10:13:16;;;;;;;7.35;4.13;;;14.10;70.40;;;;;;4910533;29;20064;-71
2022/04/25 10:15:44;;;;;;;7.38;3.38;;;14.10;70.50;;;;;;4911320;29;20043;-70
2022/04/25 10:18:13;;;;;;;10.40;4.18;;;14.10;70.40;;;;;;4906490;29;20063;-70
2022/04/25 10:20:41;;;;;;;5.68;3.22;;;14.10;70.40;;;;;;4909577;29;20039;-70
2022/04/25 10:23:12;;;;;;;6.95;3.72;;;14.20;70.50;;;;;;4909852;29;20514;-70
2022/04/25 10:25:42;;;;;;;6.35;3.60;;;14.30;70.40;;;;;;4908677;29;20537;-70
2022/04/25 10:28:17;;;;;;;6.78;3.72;;;14.40;70.30;;;;;;4906772;29;20474;-69
2022/04/25 10:30:48;;;;;;;7.95;3.20;;;14.60;70.20;;;;;;4912685;29;20051;-70
2022/04/25 10:33:17;;;;;;;7.40;3.35;;;14.80;70.30;;;;;;4909042;29;20063;-69
2022/04/25 10:35:45;;;;;;;8.27;3.53;;;15.00;70.10;;;;;;4913197;29;20072;-70
2022/04/25 10:38:50;;;;;;;5.68;3.08;;;15.10;70.00;;;;;;4909677;29;20049;-70
2022/04/25 10:44:49;;;;;;;5.32;3.33;;;15.40;68.40;;;;;;4907460;29;20099;-71
2022/04/25 10:47:19;;;;;;;5.10;2.90;;;15.40;68.20;;;;;;4899454;29;20130;-71
2022/04/25 10:49:47;;;;;;;5.00;2.88;;;15.40;66.90;;;;;;4912467;29;20048;-69
2022/04/25 10:52:55;;;;;;;5.50;2.75;;;15.30;67.20;;;;;;4909650;29;20044;-71
2022/04/25 10:55:46;;;;;;;6.55;2.83;;;15.30;67.00;;;;;;4913825;29;20074;-70
2022/04/25 10:58:23;;;;;;;4.53;2.42;;;15.30;67.00;;;;;;4915550;29;20048;-69
2022/04/25 11:00:54;;;;;;;6.30;3.00;;;15.30;67.30;;;;;;4912097;29;20048;-70
2022/04/25 11:03:29;;;;;;;5.50;3.40;;;15.20;66.40;;;;;;4910407;29;22868;-70
2022/04/25 11:05:58;;;;;;;4.78;2.92;;;15.10;66.30;;;;;;4915970;29;20075;-70
2022/04/25 11:08:31;;;;;;;6.90;2.80;;;15.10;66.50;;;;;;4914424;29;20147;-70
2022/04/25 11:11:18;;;;;;;6.40;2.78;;;14.90;66.00;;;;;;4917483;29;20064;-69
2022/04/25 11:14:10;;;;;;;5.55;2.60;;;14.90;66.00;;;;;;4911554;29;20135;-70
2022/04/25 11:16:39;;;;;;;6.82;2.85;;;14.70;66.00;;;;;;4893821;29;20087;-70
2022/04/25 11:19:11;;;;;;;5.40;3.05;;;14.70;66.40;;;;;;4914336;29;20052;-70
2022/04/25 11:21:46;;;;;;;6.28;3.72;;;14.60;66.90;;;;;;4923402;29;20470;-70
2022/04/25 11:24:35;;;;;;;10.20;4.00;;;14.60;67.50;;;;;;4921930;29;20055;-70
2022/04/25 11:27:04;;;;;;;7.93;4.07;;;14.50;69.70;;;;;;4913227;29;20048;-70
2022/04/25 11:29:32;;;;;;;6.82;3.65;;;14.40;70.70;;;;;;4916329;29;20068;-69
2022/04/25 11:32:35;;;;;;;8.80;3.47;;;14.40;71.80;;;;;;4909589;29;20052;-70
2022/04/25 11:35:04;;;;;;;7.68;4.50;;;14.30;72.80;;;;;;4835359;29;20415;-70
2022/04/25 11:37:32;;;;;;;8.02;4.30;;;14.30;73.20;;;;;;4836706;29;20127;-69
2022/04/25 11:40:01;;;;;;;7.00;4.35;;;14.20;73.50;;;;;;4856095;29;20052;-69
2022/04/25 11:42:32;;;;;;;5.93;3.10;;;14.20;73.90;;;;;;4915335;29;20048;-70
2022/04/25 11:44:59;;;;;;;;;;;14.10;74.40;;;;;;4912866;29;20508;-70
2022/04/25 11:47:26;;;;;;;6.32;3.42;;;14.20;74.70;;;;;;4912074;29;20581;-69
2022/04/25 11:49:57;;;;;;;7.32;3.58;;;14.20;74.70;;;;;;4913336;29;20048;-70
2022/04/25 11:52:24;;;;;;;;;;;14.20;75.00;;;;;;4912966;29;20165;-69
2022/04/25 11:54:51;;;;;;;5.82;3.15;;;14.20;75.20;;;;;;4914227;29;19931;-70
2022/04/25 11:57:18;;;;;;;6.75;3.65;;;14.20;75.40;;;;;;4912969;29;20711;-70
2022/04/25 11:59:46;;;;;;;8.00;3.90;;;14.20;76.00;;;;;;4906537;29;20052;-70
2022/04/25 12:02:13;;;;;;;6.78;3.97;;;14.20;76.20;;;;;;4911654;29;20059;-69
2022/04/25 12:04:42;;;;;;;9.52;4.50;;;14.20;76.60;;;;;;4913225;29;20056;-69
2022/04/25 12:07:11;;;;;;;7.57;4.47;;;14.30;77.10;;;;;;4911941;29;20135;-71
2022/04/25 12:18:16;;;;;;;9.05;3.40;;;14.40;75.90;;;;;;4909785;29;20157;-70
2022/04/25 12:20:45;;;;;;;5.53;3.15;;;14.40;75.40;;;;;;4914271;29;20059;-69
2022/04/25 12:23:22;;;;;;;5.20;2.97;;;14.40;75.40;;;;;;4909863;29;20044;-69
2022/04/25 12:25:49;;;;;;;6.13;3.33;;;14.30;75.70;;;;;;4913015;29;20059;-69
2022/04/25 12:28:18;;;;;;;6.10;2.95;;;14.40;75.40;;;;;;4913323;29;20063;-70
2022/04/25 12:30:51;;;;;;;5.82;2.72;;;14.40;75.30;;;;;;4918139;29;20043;-70
2022/04/25 12:33:21;;;;;;;4.10;2.20;;;14.40;75.30;;;;;;4917133;29;20054;-69
2022/04/25 12:35:49;;;;;;;5.05;2.08;;;14.50;74.60;;;;;;4922449;29;20066;-69
2022/04/25 12:38:40;;;;;;;6.10;3.10;;;14.50;74.30;;;;;;4925339;29;20082;-70
2022/04/25 12:41:09;;;;;;;4.57;2.40;;;14.40;74.20;;;;;;4920972;29;20054;-69
2022/04/25 12:43:43;;;;;;;5.68;2.15;;;14.30;73.60;;;;;;4923088;29;20130;-70
2022/04/25 12:46:13;;;;;;;3.88;2.00;;;14.30;73.40;;;;;;4917464;29;20458;-70
2022/04/25 12:48:59;;;;;;;;;;;14.20;72.90;;;;;;4921309;29;20044;-69
2022/04/25 12:51:29;;;;;;;3.95;2.00;;;14.20;72.70;;;;;;4917447;29;20006;-69
2022/04/25 12:53:56;;;;;;;8.18;2.30;;;14.10;72.90;;;;;;4922117;29;20106;-69
2022/04/25 12:56:24;;;;;;;3.72;1.90;;;14.00;73.20;;;;;;4920263;29;20054;-70
2022/04/25 12:58:51;;;;;;;2.38;1.58;;;13.90;73.30;;;;;;4921614;29;20048;-70
2022/04/25 13:01:32;;;;;;;4.13;2.08;;;13.80;74.40;;;;;;4915642;29;20052;-71
2022/04/25 13:04:11;;;;;;;6.32;2.45;;;13.80;74.90;;;;;;4921170;29;20138;-70
2022/04/25 13:06:38;;;;;;;6.80;2.25;;;13.70;75.90;;;;;;4919065;29;20540;-70
2022/04/25 13:09:06;;;;;;;5.28;2.22;;;13.60;77.20;;;;;;4922095;29;20611;-70
2022/04/25 13:11:33;;;;;;;3.78;2.17;;;13.60;78.00;;;;;;4922522;29;20126;-69
2022/04/25 13:14:01;;;;;;;8.32;2.35;;;13.60;78.00;;;;;;4920487;29;20046;-70
2022/04/25 13:16:30;;;;;;;3.03;1.48;;;13.60;78.30;;;;;;4920118;29;20063;-70
2022/04/25 13:18:58;;;;;;;2.60;1.77;;;13.70;78.80;;;;;;4919908;29;20040;-70
2022/04/25 13:21:25;;;;;;;5.65;1.65;;;13.90;79.00;;;;;;4920557;29;20047;-69
2022/04/25 13:23:53;;;;;;;5.30;1.77;;;14.10;78.70;;;;;;4919920;29;20150;-70
2022/04/25 13:26:21;;;;;;;4.97;2.13;;;14.20;79.10;;;;;;4921000;29;20450;-70
2022/04/25 13:28:49;;;;;;;5.30;2.20;;;14.30;79.90;;;;;;4920311;29;20075;-69
2022/04/25 13:31:16;;;;;;;3.08;1.80;;;14.40;79.80;;;;;;4920444;29;20044;-68
2022/04/25 13:33:45;;;;;;;4.25;2.15;;;14.40;79.50;;;;;;4915331;29;20040;-69
2022/04/25 13:36:12;;;;;;;2.95;1.30;;;14.60;78.90;;;;;;4919928;29;20529;-70